Kamp-Lintfort Airport

EDLC · Nordrhein-Westfalen, Deutschland

METAR-Geschichte EDLC · Kamp-Lintfort Airport

Unten siehst du die METARs der letzten paar Tage. Wähle ein Jahr, um ältere METARs ab dem Jahr 2007 zu durchsuchen.

27. Februar 2024

Uhrzeit Code Wetter Temp. Sichtweite Wolkendecke Wind METAR/SPECI
21:50
L
0 °C 600 m - 120° 120° 1 kt METAR EDLV 272050Z 12001KT 4000 0600 R27/P2000N BR FEW008 M00/M01 Q1020
21:20
L
0 °C 400 m - Var Var 1 kt METAR EDLV 272020Z VRB01KT 0800 0400 R27/P2000N FZFG FEW007 M00/M01 Q1020
20:50
I
0 °C 3,7 km - 360° 360° 0 kt METAR EDLV 271950Z 00000KT 3700 BR NSC 00/M00 Q1020
20:20
I
1 °C 4,3 km - Var Var 2 kt METAR EDLV 271920Z VRB02KT 4300 BR NSC 01/M00 Q1019
19:50
I
2 °C 4,8 km - 090° 090° 3 kt METAR EDLV 271850Z 09003KT 4800 BR FEW006 02/01 Q1019
19:20
I
3 °C 6 km 600 ft Var Var 2 kt METAR EDLV 271820Z VRB02KT 6000 BKN006 03/01 Q1019
18:50
M
2 °C 7 km - 070° 070° 4 kt METAR EDLV 271750Z 07004KT 7000 SCT007 02/01 Q1018
18:20
I
3 °C 8 km 700 ft Var Var 2 kt METAR EDLV 271720Z VRB02KT 8000 BKN007 03/02 Q1018
17:50
I
4 °C 8 km 800 ft 020° 020° 3 kt METAR EDLV 271650Z 02003KT 8000 BKN008 04/02 Q1018
17:20
I
4 °C 9 km 800 ft 020° 020° 4 kt METAR EDLV 271620Z 02004KT 330V050 9000 BKN008 04/02 Q1018
16:50
I
4 °C 9 km 900 ft 340° 340° 4 kt METAR EDLV 271550Z 34004KT 300V030 9000 OVC009 04/02 Q1018
16:20
I
4 °C 9 km 900 ft 020° 020° 4 kt METAR EDLV 271520Z 02004KT 320V060 9000 BKN009 04/02 Q1018
15:50
M
4 °C 10 km+ 1.000 ft 350° 350° 3 kt METAR EDLV 271450Z 35003KT 300V040 9999 OVC010 04/02 Q1018
15:20
M
5 °C 9 km 1.000 ft 070° 070° 3 kt METAR EDLV 271420Z 07003KT 350V120 9000 OVC010 05/03 Q1018
14:50
I
5 °C 9 km 900 ft 030° 030° 3 kt METAR EDLV 271350Z 03003KT 350V080 9000 OVC009 05/03 Q1018
14:20
M
4 °C 9 km 1.000 ft 020° 020° 5 kt METAR EDLV 271320Z 02005KT 9000 SCT008 OVC010 04/02 Q1018
13:50
I
4 °C 8 km 800 ft 020° 020° 5 kt METAR EDLV 271250Z 02005KT 340V080 8000 OVC008 04/02 Q1018
13:20
I
4 °C 8 km 800 ft 040° 040° 5 kt METAR EDLV 271220Z 04005KT 350V080 8000 OVC008 04/02 Q1018
12:50
I
4 °C 8 km 700 ft 010° 010° 6 kt METAR EDLV 271150Z 01006KT 320V040 8000 OVC007 04/02 Q1019
12:20
I
3 °C 8 km 600 ft 030° 030° 7 kt METAR EDLV 271120Z 03007KT 010V070 8000 OVC006 03/02 Q1019
11:50
I
3 °C 7 km 600 ft 010° 010° 7 kt METAR EDLV 271050Z 01007KT 340V040 7000 OVC006 03/02 Q1019
11:20
I
3 °C 7 km 700 ft 020° 020° 7 kt METAR EDLV 271020Z 02007KT 350V060 7000 OVC007 03/02 Q1019
10:50
I
3 °C 6 km 500 ft 030° 030° 7 kt METAR EDLV 270950Z 03007KT 350V080 6000 BKN005 03/02 Q1018
10:20
L
3 °C 5 km 400 ft 010° 010° 6 kt METAR EDLV 270920Z 01006KT 340V050 5000 BR OVC004 03/02 Q1018
09:50
L
3 °C 4,9 km 400 ft 020° 020° 8 kt METAR EDLV 270850Z 02008KT 4900 BR BKN004 03/02 Q1018
09:20
L
3 °C 4,5 km 400 ft 010° 010° 6 kt METAR EDLV 270820Z 01006KT 340V050 4500 BR OVC004 03/02 Q1018
08:50
L
3 °C 4,6 km 400 ft 030° 030° 7 kt METAR EDLV 270750Z 03007KT 360V060 4600 BR OVC004 03/01 Q1017
08:20
I
3 °C 2,5 km 500 ft 020° 020° 6 kt METAR EDLV 270720Z 02006KT 330V050 2500 BR OVC005 03/02 Q1017
07:50
I
3 °C 2,7 km 500 ft 020° 020° 8 kt METAR EDLV 270650Z 02008KT 2700 BR BKN005 03/02 Q1017
07:20
I
3 °C 5 km 600 ft 020° 020° 7 kt METAR EDLV 270620Z 02007KT 5000 BR OVC006 03/02 Q1017
06:50
I
3 °C 6 km 700 ft 010° 010° 6 kt METAR EDLV 270550Z 01006KT 6000 BKN007 03/02 Q1016
06:20
M
3 °C 7 km - 010° 010° 7 kt METAR EDLV 270520Z 01007KT 7000 SCT007 03/02 Q1016
05:50
V
4 °C 9 km - 010° 010° 7 kt METAR EDLV 270450Z 01007KT 340V040 9000 NSC 04/02 Q1016
05:20
V
4 °C 9 km - 020° 020° 7 kt METAR EDLV 270420Z 02007KT 9000 NSC 04/02 Q1015
04:50
V
4 °C 9 km - 020° 020° 7 kt METAR EDLV 270350Z 02007KT 350V050 9000 FEW010 04/02 Q1015
04:20
V
4 °C 10 km+ 9.600 ft 020° 020° 8 kt METAR EDLV 270320Z AUTO 02008KT 350V050 9999 // SCT077/// OVC096/// 04/02 Q1015
03:50
V
4 °C 10 km+ 7.100 ft 020° 020° 8 kt METAR EDLV 270250Z AUTO 02008KT 9999 // BKN071/// OVC089/// 04/02 Q1015
03:20
V
4 °C 10 km+ 7.400 ft 020° 020° 7 kt METAR EDLV 270220Z AUTO 02007KT 340V050 9999 // FEW065/// BKN074/// OVC093/// 04/02 Q1015
02:50
V
4 °C 10 km+ 6.600 ft 020° 020° 8 kt METAR EDLV 270150Z AUTO 02008KT 350V050 9999 // BKN066/// OVC076/// 04/02 Q1015
02:20
V
4 °C 10 km+ 7.500 ft 010° 010° 8 kt METAR EDLV 270120Z AUTO 01008KT 340V040 9999 // BKN075/// OVC094/// 04/02 Q1015
01:50
V
4 °C 10 km+ 9.500 ft 010° 010° 8 kt METAR EDLV 270050Z AUTO 01008KT 340V040 9999 // FEW011/// SCT074/// OVC095/// 04/03 Q1014
01:20
V
5 °C 10 km+ 9.500 ft 010° 010° 8 kt METAR EDLV 270020Z AUTO 01008KT 330V040 9999 // FEW011/// OVC095/// 05/03 Q1014
00:50
V
5 °C 10 km+ 8.400 ft 010° 010° 7 kt METAR EDLV 262350Z AUTO 01007KT 340V040 9999 // SCT073/// OVC084/// 05/03 Q1014
00:20
V
5 °C 10 km+ 7.200 ft 020° 020° 9 kt METAR EDLV 262320Z AUTO 02009KT 9999 // FEW062/// OVC072/// 05/03 Q1014

26. Februar 2024

Uhrzeit Code Wetter Temp. Sichtweite Wolkendecke Wind METAR/SPECI
23:50
V
5 °C 10 km+ - 010° 010° 9 kt METAR EDLV 262250Z 01009KT 340V040 CAVOK 05/03 Q1013
23:20
V
5 °C 10 km+ - 010° 010° 9 kt METAR EDLV 262220Z 01009KT 340V040 9999 FEW012 05/03 Q1013
22:50
V
5 °C 10 km+ - 010° 010° 9 kt METAR EDLV 262150Z 01009KT 340V040 9999 FEW012 05/03 Q1013
22:20
M
5 °C 10 km+ 1.200 ft 020° 020° 9 kt METAR EDLV 262120Z 02009KT 9999 BKN012 05/03 Q1013
21:50
M
5 °C 10 km+ 1.200 ft 010° 010° 8 kt METAR EDLV 262050Z 01008KT 330V040 9999 BKN012 05/03 Q1012
21:20
V
5 °C 10 km+ - 010° 010° 10 kt METAR EDLV 262020Z 01010KT 330V040 9999 SCT011 05/03 Q1011
20:50
V
5 °C 10 km+ 4.900 ft 020° 020° 8 kt METAR EDLV 261950Z 02008KT 350V050 9999 -RA FEW012 BKN049 05/03 Q1011
20:20
V
5 °C 10 km+ 4.900 ft 010° 010° 8 kt METAR EDLV 261920Z 01008KT 340V040 9999 -RA FEW012 BKN049 05/04 Q1010
19:50
V
6 °C 10 km+ 4.700 ft 010° 010° 9 kt METAR EDLV 261850Z 01009KT 9999 -RA FEW028 SCT037 OVC047 06/04 Q1010
19:20
V
6 °C 10 km+ 4.100 ft 010° 010° 9 kt METAR EDLV 261820Z 01009KT 340V040 9999 -RA SCT035 BKN041 06/04 Q1009
18:50
V
6 °C 10 km+ - 020° 020° 10 kt METAR EDLV 261750Z 02010KT 340V050 9999 -RA SCT038 06/04 Q1009
18:20
V
6 °C 10 km+ 3.500 ft 020° 020° 12 kt METAR EDLV 261720Z 02012KT 350V050 9999 -RA FEW014 BKN035 OVC043 06/04 Q1008
17:50
V
6 °C 10 km+ 3.600 ft 020° 020° 9 kt METAR EDLV 261650Z 02009KT 330V050 9999 -RA FEW029 BKN036 OVC044 06/04 Q1008
17:20
V
6 °C 8 km 3.300 ft 020° 020° 9 kt METAR EDLV 261620Z 02009KT 340V040 8000 -RA FEW014 BKN033 OVC046 06/04 Q1007
16:50
V
6 °C 9 km 4.000 ft 020° 020° 11 kt METAR EDLV 261550Z 02011KT 340V040 9000 -RA FEW012 BKN040 OVC047 06/04 Q1007
16:20
V
6 °C 10 km+ 3.500 ft 020° 020° 10 - 20 kt METAR EDLV 261520Z 02010G20KT 350V050 9999 -RA FEW012 BKN035 OVC042 06/04 Q1006
15:50
V
6 °C 9 km 3.500 ft 020° 020° 11 kt METAR EDLV 261450Z 02011KT 9000 -RA FEW011 OVC035 06/04 Q1006
15:20
I
6 °C 2,8 km 3.600 ft 020° 020° 11 kt METAR EDLV 261420Z 02011KT 350V050 9000 2800 -RA FEW018 BKN036 OVC045 06/04 Q1005
14:50
V
6 °C 8 km 3.500 ft 020° 020° 10 kt METAR EDLV 261350Z 02010KT 350V050 8000 -RA OVC035 06/04 Q1005
14:20
V
6 °C 8 km 3.500 ft 020° 020° 11 kt METAR EDLV 261320Z 02011KT 340V050 8000 -RA FEW010 OVC035 06/04 Q1005
13:50
I
6 °C 2,7 km 4.400 ft 030° 030° 11 kt METAR EDLV 261250Z 03011KT 350V050 9000 2700 -RA FEW010 SCT038 OVC044 06/04 Q1004
13:20
M
6 °C 7 km 3.200 ft 020° 020° 12 kt METAR EDLV 261220Z 02012KT 350V060 7000 -RA FEW010 BKN032 OVC040 06/04 Q1004
12:50
I
6 °C 2,7 km 3.100 ft 030° 030° 11 kt METAR EDLV 261150Z 03011KT 360V060 2700 -RA FEW011 OVC031 06/04 Q1003
12:20
M
6 °C 9 km 3.000 ft 030° 030° 9 kt METAR EDLV 261120Z 03009KT 360V070 9000 -RA FEW014 OVC030 06/04 Q1003
11:50
I
5 °C 2,7 km 2.900 ft 040° 040° 8 kt METAR EDLV 261050Z 04008KT 010V080 8000 2700 -RA OVC029 05/04 Q1003
11:20
V
5 °C 9 km 3.100 ft 040° 040° 9 kt METAR EDLV 261020Z 04009KT 360V070 9000 -RA OVC031 05/04 Q1003
10:50
I
5 °C 2,9 km 3.100 ft 040° 040° 9 kt METAR EDLV 260950Z 04009KT 360V070 9000 2900 -RA OVC031 05/04 Q1002
10:20
I
5 °C 2,8 km 3.000 ft 040° 040° 10 kt METAR EDLV 260920Z 04010KT 010V070 9000 2800 -RA BKN030 OVC040 05/04 Q1002
09:50
V
5 °C 10 km+ 3.200 ft 040° 040° 10 kt METAR EDLV 260850Z 04010KT 010V070 9999 -RA BKN032 OVC040 05/03 Q1001
09:20
V
5 °C 10 km+ 4.300 ft 040° 040° 9 kt METAR EDLV 260820Z 04009KT 010V070 9999 -RA FEW033 OVC043 05/03 Q1001
08:50
V
5 °C 10 km+ 3.300 ft 050° 050° 9 kt METAR EDLV 260750Z 05009KT 9999 -RA FEW029 OVC033 05/03 Q1001
08:20
M
5 °C 10 km+ 3.000 ft 050° 050° 11 kt METAR EDLV 260720Z 05011KT 010V070 9999 -RA BKN030 OVC036 05/03 Q1000
07:50
M
5 °C 10 km+ 3.000 ft 050° 050° 9 kt METAR EDLV 260650Z 05009KT 020V080 9999 -RA BKN030 OVC034 05/03 Q1000
07:20
V
6 °C 10 km+ 3.100 ft 050° 050° 10 kt METAR EDLV 260620Z 05010KT 010V080 9999 -RA OVC031 06/03 Q1000
06:50
V
5 °C 10 km+ 3.200 ft 050° 050° 9 kt METAR EDLV 260550Z 05009KT 9999 -RA OVC032 05/03 Q0999
06:20
V
5 °C 10 km+ 3.300 ft 050° 050° 8 kt METAR EDLV 260520Z 05008KT 020V080 9999 -RA OVC033 05/04 Q0999
05:50
V
5 °C 10 km+ 3.200 ft 040° 040° 7 kt METAR EDLV 260450Z 04007KT 010V070 9999 -RA BKN032 OVC036 05/03 Q0999
05:20
V
5 °C 10 km+ 3.400 ft 050° 050° 8 kt METAR EDLV 260420Z 05008KT 9999 -RA BKN034 OVC041 05/03 Q0999
04:50
V
5 °C 10 km+ 3.500 ft 060° 060° 7 kt METAR EDLV 260350Z AUTO 06007KT 9999 // OVC035/// 05/03 Q0999
04:20
V
6 °C 10 km+ 3.600 ft 050° 050° 7 kt METAR EDLV 260320Z AUTO 05007KT 010V070 9999 // OVC036/// 06/03 Q0999
03:50
V
5 °C 10 km+ 5.900 ft 040° 040° 7 kt METAR EDLV 260250Z AUTO 04007KT 9999 // SCT042/// OVC059/// 05/03 Q0999
03:20
V
6 °C 10 km+ 5.400 ft 050° 050° 7 kt METAR EDLV 260220Z AUTO 05007KT 9999 // FEW015/// SCT037/// OVC054/// 06/03 Q0999
02:50
V
6 °C 10 km+ 3.800 ft 080° 080° 6 kt METAR EDLV 260150Z AUTO 08006KT 040V130 9999 // BKN038/// OVC047/// 06/03 Q0999
02:20
V
6 °C 10 km+ 4.300 ft 090° 090° 6 kt METAR EDLV 260120Z AUTO 09006KT 060V120 9999 // BKN043/// OVC049/// 06/02 Q0999
01:50
V
6 °C 10 km+ 4.300 ft 050° 050° 8 kt METAR EDLV 260050Z AUTO 05008KT 9999 // FEW024/// BKN043/// OVC055/// 06/02 Q0998
01:20
V
7 °C 10 km+ 5.700 ft 070° 070° 8 kt METAR EDLV 260020Z AUTO 07008KT 9999 // OVC057/// 07/02 Q0999
00:50
V
7 °C 10 km+ 5.900 ft 070° 070° 8 kt METAR EDLV 252350Z AUTO 07008KT 9999 // BKN059/// OVC080/// 07/02 Q0998
00:20
V
7 °C 10 km+ 10.000 ft 060° 060° 8 kt METAR EDLV 252320Z AUTO 06008KT 9999 // SCT058/// OVC100/// 07/02 Q0998

25. Februar 2024

Uhrzeit Code Wetter Temp. Sichtweite Wolkendecke Wind METAR/SPECI
23:50
V
7 °C 10 km+ - 070° 070° 8 kt METAR EDLV 252250Z 07008KT CAVOK 07/02 Q0998
23:20
V
6 °C 10 km+ - 070° 070° 7 kt METAR EDLV 252220Z 07007KT CAVOK 06/02 Q0999
22:50
V
6 °C 10 km+ - 060° 060° 8 kt METAR EDLV 252150Z 06008KT CAVOK 06/02 Q0999
22:20
V
6 °C 10 km+ - 070° 070° 7 kt METAR EDLV 252120Z 07007KT CAVOK 06/02 Q0999
21:50
V
6 °C 10 km+ - 070° 070° 7 kt METAR EDLV 252050Z 07007KT CAVOK 06/02 Q0999
21:20
V
6 °C 10 km+ - 070° 070° 7 kt METAR EDLV 252020Z 07007KT CAVOK 06/03 Q0999
20:50
V
6 °C 10 km+ - 080° 080° 7 kt METAR EDLV 251950Z 08007KT CAVOK 06/03 Q0999
20:20
V
6 °C 10 km+ - 070° 070° 8 kt METAR EDLV 251920Z 07008KT CAVOK 06/03 Q0999
19:50
V
7 °C 10 km+ - 070° 070° 6 kt METAR EDLV 251850Z 07006KT CAVOK 07/03 Q1000
19:20
V
4 °C 10 km+ - 080° 080° 5 kt METAR EDLV 251820Z 08005KT 9999 FEW043 04/02 Q1000
18:50
V
5 °C 10 km+ - 080° 080° 5 kt METAR EDLV 251750Z 08005KT 9999 FEW044 05/02 Q1000
18:20
V
6 °C 10 km+ - 100° 100° 5 kt METAR EDLV 251720Z 10005KT CAVOK 06/03 Q1000
17:50
V
6 °C 10 km+ - 110° 110° 5 kt METAR EDLV 251650Z 11005KT CAVOK 06/03 Q0999
17:20
V
8 °C 10 km+ - 110° 110° 7 kt METAR EDLV 251620Z 11007KT 9999 FEW038 SCT049 08/03 Q0999
16:50
V
8 °C 10 km+ - 100° 100° 6 kt METAR EDLV 251550Z 10006KT CAVOK 08/04 Q1000
16:20
V
9 °C 10 km+ - 110° 110° 6 kt METAR EDLV 251520Z 11006KT CAVOK 09/05 Q1000
15:50
V
9 °C 10 km+ - 150° 150° 8 kt METAR EDLV 251450Z 15008KT CAVOK 09/05 Q1000
15:20
V
10 °C 10 km+ - 170° 170° 6 kt METAR EDLV 251420Z 17006KT 9999 FEW012 SCT048 10/03 Q1000
14:50
V
8 °C 10 km+ 3.200 ft 140° 140° 6 kt METAR EDLV 251350Z 14006KT 120V180 9999 FEW016 BKN032 BKN037 08/04 Q1000
14:20
V
9 °C 10 km+ 4.300 ft 190° 190° 6 kt METAR EDLV 251320Z 19006KT 160V220 9999 FEW031 BKN043 09/04 Q1000
13:50
V
9 °C 10 km+ - 180° 180° 4 kt METAR EDLV 251250Z 18004KT 150V210 9999 SCT034 09/05 Q1001
13:20
M
7 °C 8 km 2.700 ft 180° 180° 8 kt METAR EDLV 251220Z 18008KT 8000 -RA FEW014 BKN027 OVC043 07/04 Q1001
12:50
V
9 °C 10 km+ - 210° 210° 7 kt METAR EDLV 251150Z 21007KT 9999 FEW026 09/04 Q1001
12:20
V
8 °C 10 km+ 4.900 ft 200° 200° 8 kt METAR EDLV 251120Z 20008KT 170V230 9999 FEW034 BKN049 08/04 Q1001
11:50
V
8 °C 10 km+ - 220° 220° 10 kt METAR EDLV 251050Z 22010KT 9999 FEW019 SCT025 08/04 Q1001
11:20
V
8 °C 10 km+ 3.800 ft 210° 210° 9 kt METAR EDLV 251020Z 21009KT 9999 SCT018 BKN038 BKN048 08/04 Q1001
10:50
M
8 °C 10 km+ 1.900 ft 200° 200° 9 kt METAR EDLV 250950Z 20009KT 9999 BKN019 08/04 Q1001
10:20
M
7 °C 10 km+ 2.100 ft 180° 180° 8 kt METAR EDLV 250920Z 18008KT 9999 BKN021 OVC029 07/04 Q1001
09:50
V
6 °C 10 km+ 3.700 ft 190° 190° 9 kt METAR EDLV 250850Z 19009KT 9999 FEW028 BKN037 06/04 Q1001
09:20
V
6 °C 10 km+ 3.600 ft 180° 180° 8 kt METAR EDLV 250820Z 18008KT 9999 FEW024 BKN036 06/04 Q1001
08:50
V
6 °C 10 km+ - 190° 190° 9 kt METAR EDLV 250750Z 19009KT 9999 FEW020 SCT027 06/04 Q1001
08:20
M
6 °C 10 km+ 2.200 ft 180° 180° 8 kt METAR EDLV 250720Z 18008KT 9999 BKN022 BKN028 06/04 Q1001
07:50
M
6 °C 10 km+ 1.800 ft 180° 180° 8 kt METAR EDLV 250650Z 18008KT 160V220 9999 FEW016 BKN018 OVC041 06/04 Q1001
07:20
M
5 °C 10 km+ 1.700 ft 180° 180° 6 kt METAR EDLV 250620Z 18006KT 9999 BKN017 OVC024 05/04 Q1000
06:50
M
5 °C 10 km+ 1.700 ft 170° 170° 7 kt METAR EDLV 250550Z 17007KT 9999 -RA BKN017 OVC026 05/04 Q1000